ADDS METAR Data INFO
IDs: Format: Raw Decoded Include TAF

Data at: 0113 UTC 21 Oct 2017

PAIN 210056Z AUTO 22003KT 10SM CLR M09/M16 A2923 RMK AO2 SLP945 T10941161 FZRANO
PAIN 202356Z AUTO VRB03KT 10SM CLR M09/M16 A2923 RMK AO2 SLP945 T10941161 11094 21200 56010 FZRANO
PAIN 202256Z AUTO 18003KT 10SM CLR M10/M17 A2924 RMK AO2 SLP948 T11001167 FZRANO
PAIN 202156Z AUTO VRB03KT 10SM CLR M11/M17 A2925 RMK AO2 SLP951 T11111167 FZRANO
PAIN 202056Z AUTO 00000KT 10SM CLR M13/M17 A2927 RMK AO2 SLP957 T11281172 58005 FZRANO
PAIN 201956Z AUTO 00000KT 10SM CLR M16/M19 A2927 RMK AO2 SLP962 T11561189 FZRANO
PAIN 201856Z AUTO 00000KT 10SM CLR M18/M21 A2928 RMK AO2 SLP965 T11831211 FZRANO
PAIN 201756Z AUTO 00000KT 10SM CLR M20/M22 A2928 RMK AO2 SLP967 60000 T12001222 11133 21211 50003 FZRANO
PAIN 201656Z AUTO 00000KT 10SM CLR M21/M23 A2928 RMK AO2 SLP968 T12111233 FZRANO
PAIN 201556Z AUTO 00000KT 10SM CLR M21/M23 A2927 RMK AO2 SLP965 T12061228 FZRANO
PAIN 201456Z AUTO 00000KT 10SM CLR M19/M21 A2927 RMK AO2 SNE1359 SLP963 P0000 60000 T11941211 53002 FZRANO
PAIN 201428Z AUTO 00000KT 10SM FEW024 M18/M21 A2927 RMK AO2 SNE1359 P0000 FZRANO
PAIN 201411Z AUTO 00000KT 10SM SCT007 BKN024 M17/M19 A2927 RMK AO2 SNE1359 P0000 FZRANO
PAIN 201356Z AUTO 00000KT 9SM -SN BKN007 M17/M19 A2926 RMK AO2 SNB43 SLP957 P0000 T11671189 FZRANO
PAIN 201350Z AUTO 00000KT 9SM -SN BKN007 M17/M19 A2926 RMK AO2 SNB43 P0000 FZRANO
PAIN 201323Z AUTO 26003KT 10SM FEW007 SCT027 M16/M18 A2926 RMK AO2 FZRANO
PAIN 201256Z AUTO 00000KT 10SM OVC027 M16/M18 A2926 RMK AO2 SNE1157 SLP956 T11561178 FZRANO
PAIN 201156Z AUTO 00000KT 9SM -SN BKN029 M14/M17 A2927 RMK AO2 SNB06 SLPNO P0000 60000 7//// T11391167 11100 21144 57001 FZRANO
PAIN 201130Z AUTO VRB03KT 10SM OVC031 M12/M14 A2927 RMK AO2 SNB06E24 P0000 FZRANO
PAIN 201030Z AUTO 29005KT 10SM BKN027 M12/M14 A2927 RMK AO2 SNE16 P0000 FZRANO
PAIN 200956Z AUTO 29003KT 9SM -SN FEW026 M11/M14 A2927 RMK AO2 SLPNO P0000 T11111139 FZRANO
PAIN 200856Z AUTO VRB04KT 9SM -SN OVC070 M12/M14 A2927 RMK AO2 SLPNO P0000 60000 T11171139 410831117 58004 FZRANO
PAIN 200756Z AUTO VRB04KT 9SM -SN OVC060 M11/M13 A2928 RMK AO2 SLPNO P0000 T11111133 FZRANO
PAIN 200656Z AUTO VRB04KT 8SM -SN FEW045 OVC055 M10/M13 A2928 RMK AO2 SLPNO P0000 T11001133 FZRANO
PAIN 200556Z AUTO 28005KT 9SM -SN BKN050 OVC065 M10/M13 A2928 RMK AO2 SLPNO P0000 6//// T11001133 11083 21100 56001 FZRANO
PAIN 200456Z AUTO VRB04KT 9SM -SN OVC065 M10/M13 A2928 RMK AO2 SLPNO P0000 T11001133 FZRANO
PAIN 200356Z AUTO VRB03KT 10SM -SN OVC065 M10/M14 A2928 RMK AO2 SNB52 SLPNO P0000 T11001139 FZRANO
PAIN 200256Z AUTO 00000KT 10SM OVC065 M09/M14 A2929 RMK AO2 SLPNO 6//// T10941139 53001 FZRANO
PAIN 200156Z AUTO 33003KT 10SM OVC060 M09/M14 A2928 RMK AO2 SLPNO T10891139 FZRANO
PAIN 200056Z AUTO VRB04KT 10SM M08/M13 A2928 RMK AO2 SLPNO T10831133 FZRANO
PAIN 200051Z AUTO 00000KT 10SM M08/M13 A2928 RMK AO2 FZRANO
PAIN 191856Z AUTO 01008KT 3SM -SN BR SCT035 OVC075 M08/M10 A2928 RMK AO2 SLP954 P0000 T10781100 FZRANO
PAIN 191854Z AUTO 01007KT 3SM -SN BR FEW035 OVC075 M08/M10 A2928 RMK AO2 P0000 FZRANO
PAIN 191809Z AUTO VRB05KT 1 3/4SM -SN BR FEW032 OVC075 M08/M10 A2927 RMK AO2 P0000 FZRANO
PAIN 191756Z AUTO 34005KT 2SM -SN BR FEW034 OVC075 M08/M10 A2927 RMK AO2 VIS 1 1/2V3 SLP952 P0000 60001 T10831100 11078 21083 53001 FZRANO
PAIN 191738Z AUTO 00000KT 2SM -SN BR FEW013 BKN050 OVC075 M08/M10 A2927 RMK AO2 VIS 1 1/2V4 P0000 FZRANO
PAIN 191719Z AUTO 00000KT 1 3/4SM -SN BR FEW023 BKN048 OVC070 M08/M10 A2927 RMK AO2 VIS 1V3 P0000 FZRANO
PAIN 191707Z AUTO VRB03KT 2SM -SN BR FEW011 BKN032 OVC050 M08/M10 A2927 RMK AO2 VIS 1 1/2V3 P0000 FZRANO
PAIN 191656Z AUTO VRB03KT 1 1/4SM -SN BR FEW011 BKN026 OVC050 M08/M10 A2927 RMK AO2 SLP951 P0000 T10831100 FZRANO
PAIN 191642Z AUTO VRB03KT 2SM -SN BR SCT009 BKN024 OVC044 M08/M10 A2927 RMK AO2 CIG 017V030 P0000 FZRANO
PAIN 191618Z AUTO 36004KT 1 1/2SM -SN BR BKN024 BKN028 OVC075 M08/M10 A2927 RMK AO2 P0000 FZRANO
PAIN 191606Z AUTO 35004KT 1 3/4SM -SN BR SCT022 OVC075 M08/M10 A2927 RMK AO2 P0000 FZRANO
PAIN 191556Z AUTO 02004KT 3SM -SN BR SCT022 OVC075 M08/M10 A2927 RMK AO2 SLP951 P0000 T10831100 FZRANO
PAIN 191456Z AUTO 35005KT 8SM -SN SCT022 OVC070 M08/M10 A2926 RMK AO2 SLP947 P0000 60001 T10831100 58004 FZRANO
PAIN 191356Z AUTO 33003KT 4SM -SN BR FEW008 BKN033 OVC042 M08/M09 A2927 RMK AO2 SLP949 P0000 T10781094 FZRANO
PAIN 191335Z AUTO VRB04KT 3SM -SN BR FEW016 BKN034 OVC041 M08/M09 A2927 RMK AO2 P0000 FZRANO
PAIN 191327Z AUTO 00000KT 2 1/2SM -SN BR FEW008 BKN018 OVC037 M08/M09 A2927 RMK AO2 VIS 2V4 P0000 FZRANO